Latest Weather Observations for Cape Jaffa

IDS60801

Issued at 8:05 pm CST Tuesday 29 July 2014 (issued every 30 minutes, with the page automatically refreshed every 10 minutes)

About weather observations | Map of weather stations | Latest weather observations for SA | Other Formats
Station Details ID: 026095 Name: THE LIMESTONE Lat: -36.97 Lon: 139.72 Height: 17.0 m
Data from the previous 72 hours. | See also: Recent months at Cape Jaffa
Date/Time
CST
Temp
°C
App
Temp
°C
Dew
Point
Rel
Hum
%
Delta-T
°C
Wind Press
QNH
hPa
Press
MSL
hPa
Rain
since 9 am
mm
Dir
 
Spd
km/h
Gust
km/h
Spd
kts
Gust
kts
29/08:00pm 14.1 9.3 11.8 86 1.2 WNW 28 37 15 20 1012.7 - 4.0
29/07:30pm 13.9 9.4 11.4 85 1.3 WNW 26 33 14 18 1012.4 1012.4 4.0
29/07:00pm 13.2 7.9 11.4 89 1.0 W 30 39 16 21 1012.2 - 4.0
29/06:30pm 14.1 8.0 11.8 86 1.2 WNW 35 54 19 29 1012.0 1012.0 3.8
29/06:29pm 14.3 8.6 11.8 85 1.3 WNW 33 54 18 29 1011.9 - 3.6
29/06:00pm 14.8 10.4 11.8 82 1.6 WNW 26 44 14 24 1011.6 1011.6 3.6
29/05:30pm 15.0 9.2 11.4 79 1.9 WNW 33 44 18 24 1011.4 1011.4 3.6
29/05:00pm 14.9 9.3 11.5 80 1.8 WNW 32 43 17 23 1011.2 - 3.6
29/04:30pm 15.0 9.9 11.8 81 1.7 WNW 30 41 16 22 1010.8 1010.8 3.6
29/04:00pm 15.3 10.6 12.1 81 1.7 WNW 28 39 15 21 1010.5 - 3.6
29/03:30pm 14.9 9.3 11.5 80 1.8 WNW 32 43 17 23 1010.3 1010.3 3.6
29/03:00pm 15.1 9.0 11.9 81 1.7 WNW 35 50 19 27 1010.3 1010.3 3.6
29/02:30pm 15.1 10.2 12.4 84 1.5 WNW 30 43 16 23 1010.0 1010.0 3.6
29/02:00pm 15.2 10.2 12.3 83 1.6 WNW 30 43 16 23 1009.7 - 3.6
29/01:30pm 14.4 8.1 12.3 87 1.1 WNW 37 52 20 28 1009.7 1009.7 3.6
29/01:00pm 14.3 8.7 12.2 87 1.1 NW 33 48 18 26 1009.9 - 2.8
29/12:30pm 14.5 8.3 12.5 88 1.1 WNW 37 54 20 29 1009.9 1009.9 2.6
29/12:00pm 15.0 10.9 12.7 86 1.3 WNW 26 39 14 21 1010.2 1010.2 2.4
29/11:30am 14.1 8.9 12.8 92 0.7 WNW 32 43 17 23 1010.5 1010.5 2.4
29/11:00am 14.8 9.3 12.5 86 1.3 NW 33 46 18 25 1010.3 - 0.6
29/10:30am 14.0 9.1 12.4 90 0.9 WNW 30 46 16 25 1010.5 1010.5 0.6
29/10:00am 14.7 9.4 12.4 86 1.3 NW 32 46 17 25 1010.3 - 0.0
29/09:30am 14.4 10.2 12.3 87 1.1 NW 26 35 14 19 1010.3 1010.3 0.0
29/09:00am 14.1 9.0 12.0 87 1.1 NW 30 43 16 23 1010.1 1010.1 2.8
29/08:30am 14.1 8.4 11.8 86 1.2 NW 33 46 18 25 1009.7 1009.7 2.8
29/08:00am 13.6 8.5 12.0 90 0.9 NNW 30 43 16 23 1009.8 - 2.8
29/07:30am 13.7 8.2 11.9 89 1.0 NW 32 41 17 22 1009.6 1009.6 2.8
29/07:00am 13.5 7.8 11.9 90 0.9 NW 33 44 18 24 1009.7 - 2.8
29/06:39am 13.5 8.8 11.9 90 0.9 NW 28 57 15 31 1009.3 - 2.6
29/06:30am 13.4 7.9 11.8 90 0.9 NNW 32 43 17 23 1009.6 1009.6 1.2
29/06:00am 13.6 8.6 11.1 85 1.3 NW 28 37 15 20 1009.3 1009.3 1.0
29/05:55am 13.6 8.2 11.0 84 1.4 NW 30 48 16 26 1009.3 - 1.0
29/05:30am 13.3 8.4 11.4 88 1.0 NW 28 41 15 22 1009.2 1009.2 1.0
29/05:00am 13.6 8.1 11.8 89 1.0 NW 32 44 17 24 1009.2 - 1.0
29/04:30am 13.7 7.5 11.4 86 1.2 NW 35 48 19 26 1009.2 1009.2 0.2
29/04:00am 13.6 7.4 11.3 86 1.2 NW 35 46 19 25 1009.1 - 0.2
29/03:30am 13.7 7.1 11.2 85 1.3 NW 37 50 20 27 1009.0 1009.0 0.2
29/03:00am 13.8 7.1 11.1 84 1.4 NW 37 50 20 27 1009.3 1009.3 0.2
29/02:35am 13.9 7.6 11.2 84 1.4 NW 35 54 19 29 1009.4 - 0.2
29/02:30am 13.7 7.8 11.0 84 1.4 NW 33 48 18 26 1009.4 1009.4 0.2
29/02:00am 13.6 7.7 11.0 84 1.4 NW 33 44 18 24 1009.5 - 0.2
29/01:30am 13.9 7.2 11.1 83 1.5 NW 37 52 20 28 1009.8 1009.8 0.2
29/01:00am 13.7 7.4 11.0 84 1.4 NW 35 48 19 26 1010.1 - 0.2
29/12:30am 13.9 7.2 10.9 82 1.6 NW 37 50 20 27 1010.4 1010.4 0.2
29/12:00am 13.8 7.5 11.0 83 1.5 NNW 35 46 19 25 1010.7 1010.7 0.2
 
Date/Time
CST
Temp
°C
App
Temp
°C
Dew
Point
Rel
Hum
%
Delta-T
°C
Wind Press
QNH
hPa
Press
MSL
hPa
Rain
since 9 am
mm
Dir
 
Spd
km/h
Gust
km/h
Spd
kts
Gust
kts
28/11:30pm 13.9 7.6 10.9 82 1.6 NNW 35 50 19 27 1011.1 1011.1 0.2
28/11:00pm 13.6 7.8 10.8 83 1.5 NNW 32 46 17 25 1011.4 - 0.2
28/10:30pm 13.9 7.9 10.7 81 1.7 NW 33 44 18 24 1011.8 1011.8 0.2
28/10:00pm 13.8 7.4 10.6 81 1.7 NW 35 48 19 26 1012.0 - 0.2
28/09:30pm 13.7 7.4 10.9 83 1.5 NNW 35 46 19 25 1011.8 1011.8 0.2
28/09:00pm 13.7 7.7 10.9 83 1.5 NNW 33 43 18 23 1012.2 1012.2 0.2
28/08:30pm 13.7 8.0 11.0 84 1.4 NNW 32 41 17 22 1012.4 1012.4 0.0
28/08:00pm 13.2 8.6 11.1 87 1.1 NNW 26 33 14 18 1012.4 - 0.0
28/07:30pm 13.2 8.2 10.9 86 1.2 NNW 28 37 15 20 1012.4 1012.4 0.0
28/07:00pm 13.4 7.4 10.9 85 1.3 NNW 33 41 18 22 1012.3 - 0.0
28/06:30pm 13.3 7.8 10.7 84 1.4 NNW 30 37 16 20 1012.2 1012.2 0.0
28/06:00pm 13.5 7.7 10.9 84 1.4 NNW 32 39 17 21 1012.0 1012.0 0.0
28/05:30pm 13.4 8.0 10.8 84 1.4 NNW 30 39 16 21 1012.2 1012.2 0.0
28/05:00pm 13.7 8.0 11.0 84 1.4 NNW 32 43 17 23 1012.2 - 0.0
28/04:30pm 13.3 9.2 11.4 88 1.0 NNW 24 33 13 18 1012.3 1012.3 0.0
28/04:00pm 13.9 9.1 11.6 86 1.2 NNW 28 35 15 19 1012.1 - 0.0
28/03:30pm 14.1 8.9 11.6 85 1.3 NNW 30 35 16 19 1012.0 1012.0 0.0
28/03:00pm 14.5 10.2 12.2 86 1.2 N 26 35 14 19 1012.0 1012.0 0.0
28/02:30pm 14.6 10.0 12.3 86 1.3 N 28 33 15 18 1012.4 1012.4 0.0
28/02:00pm 15.0 10.2 11.6 80 1.8 NNW 28 37 15 20 1012.8 - 0.0
28/01:30pm 15.2 10.4 11.8 80 1.8 NNW 28 37 15 20 1013.2 1013.2 0.0
28/01:00pm 15.3 10.3 12.1 81 1.7 NNW 30 37 16 20 1013.6 - 0.0
28/12:30pm 15.4 10.2 11.6 78 2.0 NNW 30 41 16 22 1014.0 1014.0 0.0
28/12:00pm 15.3 10.0 11.3 77 2.1 NW 30 39 16 21 1014.4 1014.4 0.0
28/11:30am 15.3 10.5 11.7 79 1.9 NNW 28 37 15 20 1014.6 1014.6 0.0
28/11:00am 15.4 11.0 11.6 78 2.0 NW 26 33 14 18 1015.1 - 0.0
28/10:30am 15.3 11.7 11.7 79 1.9 NNW 22 28 12 15 1015.2 1015.2 0.0
28/10:00am 14.9 11.3 11.7 81 1.7 NNW 22 30 12 16 1015.2 - 0.0
28/09:30am 14.6 10.6 11.7 83 1.6 NNW 24 30 13 16 1015.3 1015.3 0.0
28/09:00am 14.1 10.9 12.0 87 1.1 NNW 20 28 11 15 1015.2 1015.2 0.0
28/08:30am 13.2 10.2 12.1 93 0.6 NNW 19 22 10 12 1015.1 1015.1 0.0
28/08:00am 12.8 10.1 11.7 93 0.6 NNW 17 20 9 11 1014.9 - 0.0
28/07:30am 12.4 9.2 11.3 93 0.6 NNW 19 24 10 13 1014.7 1014.7 0.0
28/07:00am 12.8 10.1 11.7 93 0.6 NNW 17 20 9 11 1014.7 - 0.0
28/06:30am 12.3 9.8 11.2 93 0.6 N 15 20 8 11 1014.7 1014.7 0.0
28/06:00am 12.3 9.8 11.2 93 0.6 N 15 20 8 11 1014.6 1014.6 0.0
28/05:30am 12.5 10.0 11.2 92 0.7 N 15 19 8 10 1014.7 1014.7 0.0
28/05:00am 12.6 10.2 11.3 92 0.7 N 15 17 8 9 1014.7 - 0.0
28/04:30am 12.3 9.4 11.0 92 0.7 N 17 20 9 11 1014.8 1014.8 0.0
28/04:00am 12.1 8.7 10.5 90 0.8 N 19 22 10 12 1014.9 - 0.0
28/03:30am 12.5 9.5 10.7 89 0.9 N 17 22 9 12 1014.9 1014.9 0.0
28/03:00am 12.7 9.4 10.8 88 1.0 NNW 19 24 10 13 1015.1 1015.1 0.0
28/02:30am 12.6 9.0 10.5 87 1.1 N 20 24 11 13 1015.1 1015.1 0.0
28/02:00am 12.6 8.9 10.3 86 1.2 N 20 26 11 14 1015.3 - 0.0
28/01:30am 11.7 8.4 9.6 87 1.1 NNW 17 22 9 12 1015.5 1015.5 0.0
28/01:00am 12.0 8.4 9.7 86 1.2 N 19 22 10 12 1015.4 - 0.0
28/12:30am 12.2 8.5 9.6 84 1.3 NNW 19 22 10 12 1016.0 1016.0 0.0
28/12:00am 12.2 8.3 9.4 83 1.4 NNW 20 24 11 13 1016.2 1016.2 0.0
 
Date/Time
CST
Temp
°C
App
Temp
°C
Dew
Point
Rel
Hum
%
Delta-T
°C
Wind Press
QNH
hPa
Press
MSL
hPa
Rain
since 9 am
mm
Dir
 
Spd
km/h
Gust
km/h
Spd
kts
Gust
kts
27/11:30pm 12.4 8.1 9.4 82 1.5 NNW 22 28 12 15 1016.5 1016.5 0.0
27/11:00pm 12.2 7.9 9.4 83 1.4 N 22 26 12 14 1016.4 - 0.0
27/10:30pm 12.4 8.5 9.6 83 1.4 N 20 26 11 14 1016.6 1016.6 0.0
27/10:00pm 12.3 8.5 9.7 84 1.3 N 20 26 11 14 1016.7 - 0.0
27/09:30pm 12.5 7.9 9.7 83 1.4 N 24 37 13 20 1017.1 1017.1 0.0
27/09:00pm 12.3 7.6 9.1 81 1.6 N 24 32 13 17 1017.2 1017.2 0.0
27/08:30pm 12.3 8.4 9.3 82 1.5 N 20 30 11 16 1017.2 1017.2 0.0
27/08:00pm 12.1 8.1 9.1 82 1.5 N 20 28 11 15 1017.2 - 0.0
27/07:30pm 12.7 8.0 9.2 79 1.8 N 24 32 13 17 1017.0 1017.0 0.0
27/07:00pm 12.8 8.5 9.3 79 1.8 N 22 28 12 15 1017.3 - 0.0
27/06:30pm 12.1 7.8 9.3 83 1.4 N 22 28 12 15 1017.1 1017.1 0.0
27/06:00pm 12.8 7.3 9.1 78 1.9 N 28 35 15 19 1017.0 1017.0 0.0
27/05:30pm 12.6 8.2 8.9 78 1.9 N 22 28 12 15 1017.4 1017.4 0.0
27/05:00pm 13.4 7.9 9.1 75 2.2 N 28 35 15 19 1017.2 - 0.0
27/04:30pm 13.6 8.2 9.5 76 2.1 N 28 33 15 18 1017.2 1017.2 0.0
27/04:00pm 14.1 8.3 9.3 73 2.5 N 30 39 16 21 1017.2 - 0.0
27/03:30pm 14.2 8.4 9.4 73 2.5 N 30 39 16 21 1017.4 1017.4 0.0
27/03:00pm 14.7 8.9 9.5 71 2.7 N 30 39 16 21 1017.5 1017.5 0.0
27/02:30pm 14.4 8.9 9.2 71 2.7 N 28 35 15 19 1017.7 1017.7 0.0
27/02:00pm 14.1 7.9 9.3 73 2.5 N 32 44 17 24 1018.0 - 0.0
27/01:30pm 13.8 7.6 9.5 75 2.2 N 32 43 17 23 1018.0 1018.0 0.0
27/01:00pm 14.0 7.9 9.6 75 2.3 N 32 41 17 22 1018.4 - 0.0
27/12:30pm 13.8 7.7 9.6 76 2.1 N 32 43 17 23 1018.7 1018.7 0.0
27/12:00pm 13.0 6.8 9.3 78 1.9 N 32 41 17 22 1019.5 1019.5 0.0
27/11:30am 13.1 8.1 9.5 79 1.8 N 26 35 14 19 1020.5 1020.5 0.0
27/11:00am 12.5 7.1 9.5 82 1.5 N 28 37 15 20 1020.7 - 0.0
27/10:30am 12.3 5.8 8.8 79 1.7 N 33 43 18 23 1020.9 1020.9 0.0
27/10:00am 12.5 6.7 9.3 81 1.6 N 30 39 16 21 1021.3 - 0.0
27/09:30am 11.2 5.2 8.6 84 1.3 N 30 39 16 21 1021.5 1021.5 0.0
27/09:00am 11.7 5.8 9.1 84 1.3 N 30 37 16 20 1021.6 1021.6 0.2
27/08:30am 11.1 5.1 8.8 86 1.1 N 30 39 16 21 1021.6 1021.6 0.2
27/08:00am 10.2 5.2 8.1 87 1.0 N 24 32 13 17 1022.0 - 0.2
27/07:30am 10.1 4.7 7.9 86 1.1 N 26 37 14 20 1022.0 1022.0 0.2
27/07:00am 9.8 5.5 7.9 88 0.9 N 20 26 11 14 1022.3 - 0.2
27/06:30am 10.3 6.1 8.4 88 0.9 N 20 28 11 15 1022.3 1022.3 0.2
27/06:00am 10.2 5.3 8.3 88 0.9 N 24 30 13 16 1022.5 1022.5 0.2
27/05:30am 10.5 6.6 8.6 88 0.9 N 19 24 10 13 1022.7 1022.7 0.2
27/05:00am 10.8 6.8 8.9 88 0.9 N 20 26 11 14 1022.8 - 0.2
27/04:30am 10.2 6.1 8.5 89 0.8 N 20 26 11 14 1022.9 1022.9 0.2
27/04:00am 10.3 6.2 8.6 89 0.8 N 20 24 11 13 1022.9 - 0.2
27/03:30am 10.6 6.5 8.7 88 0.9 N 20 26 11 14 1023.1 1023.1 0.2
27/03:00am 10.6 6.8 9.0 90 0.8 N 19 22 10 12 1023.4 1023.4 0.2
27/02:30am 10.6 7.2 9.0 90 0.8 N 17 19 9 10 1023.7 1023.7 0.2
27/02:00am 10.7 7.4 9.5 92 0.6 N 17 20 9 11 1023.8 - 0.0
27/01:30am 10.6 7.1 8.9 89 0.8 N 17 20 9 11 1023.7 1023.7 0.0
27/01:00am 10.9 7.5 9.3 90 0.8 N 17 20 9 11 1023.8 - 0.0
27/12:30am 10.8 7.4 9.2 90 0.8 N 17 19 9 10 1024.0 1024.0 0.0
27/12:00am 10.7 7.4 9.5 92 0.6 N 17 20 9 11 1024.3 1024.3 0.0
 
Date/Time
CST
Temp
°C
App
Temp
°C
Dew
Point
Rel
Hum
%
Delta-T
°C
Wind Press
QNH
hPa
Press
MSL
hPa
Rain
since 9 am
mm
Dir
 
Spd
km/h
Gust
km/h
Spd
kts
Gust
kts
26/11:30pm 10.8 7.9 9.6 92 0.6 N 15 19 8 10 1024.6 1024.6 0.0
26/11:00pm 10.2 7.2 9.3 94 0.4 N 15 17 8 9 1024.7 - 0.0
26/10:30pm 9.6 6.8 8.7 94 0.4 N 13 15 7 8 1024.9 1024.9 0.0
26/10:00pm 9.6 7.6 8.7 94 0.4 NNE 9 13 5 7 1025.1 - 0.0
26/09:30pm 9.7 6.6 8.9 95 0.4 NNE 15 17 8 9 1025.1 1025.1 0.0
26/09:00pm 9.8 7.4 8.6 92 0.6 N 11 13 6 7 1025.3 1025.3 0.0
26/08:30pm 10.0 7.3 8.8 92 0.6 N 13 15 7 8 1025.5 1025.5 0.0

Other Formats:

Comma delimited format used in spreadsheet applications
http://www.bom.gov.au/fwo/IDS60801/IDS60801.94813.axf

JavaScript Object Notation format (JSON) in row-major order
http://www.bom.gov.au/fwo/IDS60801/IDS60801.94813.json